createdAt,value
2017-11-07T00:01:07.564Z,7.50
2017-11-07T00:03:33.882Z,9.07
2017-11-07T00:06:01.974Z,5.30
2017-11-07T00:08:28.263Z,7.97
2017-11-07T00:10:54.591Z,5.53
2017-11-07T00:13:21.915Z,8.18
2017-11-07T00:15:50.027Z,8.73
2017-11-07T00:18:16.334Z,8.23
2017-11-07T00:20:43.342Z,6.75
2017-11-07T00:23:09.618Z,6.72
2017-11-07T00:25:36.674Z,12.00
2017-11-07T00:28:02.946Z,6.95
2017-11-07T00:30:29.995Z,5.37
2017-11-07T00:32:56.383Z,5.75
2017-11-07T00:35:22.663Z,6.00
2017-11-07T00:37:48.971Z,6.75
2017-11-07T00:40:15.282Z,7.95
2017-11-07T00:42:41.556Z,9.80
2017-11-07T00:45:07.847Z,8.32
2017-11-07T00:47:34.171Z,7.93
2017-11-07T00:50:00.415Z,6.93
2017-11-07T00:52:26.690Z,8.75
2017-11-07T00:54:52.973Z,8.80
2017-11-07T00:57:20.011Z,10.20
2017-11-07T00:59:46.262Z,7.55
2017-11-07T01:02:12.552Z,5.45
2017-11-07T01:04:38.854Z,7.18
2017-11-07T01:07:06.231Z,5.70
2017-11-07T01:09:32.499Z,7.05
2017-11-07T01:11:58.786Z,11.57
2017-11-07T01:14:25.055Z,6.07
2017-11-07T01:16:51.346Z,3.72
2017-11-07T01:19:17.606Z,7.03
2017-11-07T01:21:43.875Z,6.03
2017-11-07T01:24:10.185Z,4.03
2017-11-07T01:26:36.438Z,7.93
2017-11-07T01:29:02.743Z,5.07
2017-11-07T01:31:29.038Z,6.90
2017-11-07T01:33:55.331Z,9.80
2017-11-07T01:36:21.631Z,6.07
2017-11-07T01:38:47.927Z,5.35
2017-11-07T01:41:14.229Z,8.60
2017-11-07T01:43:40.499Z,7.35
2017-11-07T01:46:07.599Z,6.07
2017-11-07T01:48:33.870Z,5.70
2017-11-07T01:51:00.136Z,6.30
2017-11-07T01:53:26.443Z,4.93
2017-11-07T01:55:53.451Z,7.25
2017-11-07T01:58:19.790Z,7.32
2017-11-07T02:00:46.102Z,9.98
2017-11-07T02:03:12.415Z,7.05
2017-11-07T02:05:38.731Z,10.13
2017-11-07T02:08:05.031Z,7.37
2017-11-07T02:10:31.318Z,10.38
2017-11-07T02:12:57.586Z,9.38
2017-11-07T02:15:23.887Z,5.95
2017-11-07T02:17:50.214Z,7.82
2017-11-07T02:20:17.586Z,18.08
2017-11-07T02:22:43.917Z,10.05
2017-11-07T02:25:10.251Z,7.57
2017-11-07T02:27:36.550Z,8.23
2017-11-07T02:30:03.615Z,9.68
2017-11-07T02:32:29.922Z,8.13
2017-11-07T02:34:56.207Z,10.35
2017-11-07T02:37:22.538Z,7.07
2017-11-07T02:39:49.590Z,7.95
2017-11-07T02:42:15.914Z,8.32
2017-11-07T02:44:42.202Z,8.07
2017-11-07T02:47:09.263Z,9.63
2017-11-07T02:49:35.590Z,10.20
2017-11-07T02:52:02.639Z,9.88
2017-11-07T02:54:28.944Z,10.30
2017-11-07T02:56:55.243Z,11.98
2017-11-07T02:59:21.586Z,13.80
2017-11-07T03:01:48.591Z,9.00
2017-11-07T03:04:14.854Z,7.87
2017-11-07T03:06:41.138Z,11.35
2017-11-07T03:09:08.174Z,10.50
2017-11-07T03:11:34.422Z,10.55
2017-11-07T03:14:00.726Z,9.00
2017-11-07T03:16:26.979Z,11.65
2017-11-07T03:18:53.249Z,10.65
2017-11-07T03:21:19.539Z,9.30
2017-11-07T03:23:45.815Z,7.40
2017-11-07T03:26:12.840Z,7.55
2017-11-07T03:28:39.126Z,8.95
2017-11-07T03:31:06.156Z,9.05
2017-11-07T03:33:32.435Z,11.18
2017-11-07T03:35:58.726Z,9.38
2017-11-07T03:38:24.975Z,8.23
2017-11-07T03:40:51.275Z,12.10
2017-11-07T03:43:17.562Z,6.28
2017-11-07T03:45:43.838Z,11.90
2017-11-07T03:48:10.878Z,9.65
2017-11-07T03:50:37.910Z,10.90
2017-11-07T03:53:04.154Z,9.27
2017-11-07T03:55:30.447Z,9.15
2017-11-07T03:57:56.733Z,7.70
2017-11-07T04:00:23.023Z,8.70
2017-11-07T04:02:50.030Z,6.78
2017-11-07T04:05:16.318Z,14.07
2017-11-07T04:07:42.603Z,7.50
2017-11-07T04:10:08.875Z,8.90
2017-11-07T04:12:35.186Z,7.68
2017-11-07T04:15:01.434Z,8.25
2017-11-07T04:17:27.719Z,7.55
2017-11-07T04:19:54.746Z,8.10
2017-11-07T04:22:21.006Z,6.03
2017-11-07T04:24:47.279Z,8.18
2017-11-07T04:27:13.546Z,9.93
2017-11-07T04:29:39.811Z,7.25
2017-11-07T04:32:06.091Z,6.40
2017-11-07T04:34:33.111Z,6.68
2017-11-07T04:36:59.389Z,9.65
2017-11-07T04:39:25.670Z,7.85
2017-11-07T04:41:51.950Z,10.52
2017-11-07T04:44:18.224Z,7.97
2017-11-07T04:46:44.471Z,6.50
2017-11-07T04:49:10.769Z,10.32
2017-11-07T04:51:37.047Z,8.43
2017-11-07T04:54:03.319Z,7.22
2017-11-07T04:56:29.627Z,8.07
2017-11-07T04:58:55.878Z,11.35
2017-11-07T05:01:22.883Z,10.27
2017-11-07T05:03:49.186Z,8.55
2017-11-07T05:06:16.203Z,9.35
2017-11-07T05:08:42.459Z,7.53
2017-11-07T05:11:09.538Z,7.53
2017-11-07T05:13:36.543Z,6.90
2017-11-07T05:16:02.854Z,9.23
2017-11-07T05:18:29.139Z,6.35
2017-11-07T05:20:55.431Z,6.55
2017-11-07T05:23:22.435Z,9.13
2017-11-07T05:25:48.719Z,7.50
2017-11-07T05:28:15.734Z,8.45
2017-11-07T05:30:41.991Z,5.00
2017-11-07T05:33:08.279Z,7.18
2017-11-07T05:35:34.555Z,5.43
2017-11-07T05:38:00.818Z,6.93
2017-11-07T05:40:27.858Z,7.95
2017-11-07T05:42:54.147Z,12.73
2017-11-07T05:45:20.403Z,6.93
2017-11-07T05:47:46.738Z,7.82
2017-11-07T05:50:13.810Z,8.00
2017-11-07T05:52:40.091Z,7.18
2017-11-07T05:55:06.421Z,8.40
2017-11-07T05:57:32.692Z,7.12
2017-11-07T05:59:58.999Z,8.48
2017-11-07T06:02:25.294Z,7.10
2017-11-07T06:04:52.294Z,7.70
2017-11-07T06:07:18.566Z,8.40
2017-11-07T06:09:44.830Z,8.00
2017-11-07T06:12:11.139Z,15.07
2017-11-07T06:14:37.422Z,11.02
2017-11-07T06:17:03.715Z,8.02
2017-11-07T06:19:29.981Z,10.02
2017-11-07T06:21:56.267Z,10.95
2017-11-07T06:24:22.588Z,9.30
2017-11-07T06:26:49.599Z,11.23
2017-11-07T06:29:15.854Z,10.93
2017-11-07T06:31:42.170Z,11.43
2017-11-07T06:34:09.435Z,8.57
2017-11-07T06:36:35.702Z,9.82
2017-11-07T06:39:02.043Z,8.25
2017-11-07T06:41:28.302Z,15.10
2017-11-07T06:43:54.571Z,15.30
2017-11-07T06:46:21.923Z,17.98
2017-11-07T06:48:48.943Z,15.25
2017-11-07T06:51:16.247Z,14.73
2017-11-07T06:53:42.529Z,14.65
2017-11-07T06:56:08.786Z,12.50
2017-11-07T06:58:35.070Z,11.35
2017-11-07T07:01:02.106Z,12.13
2017-11-07T07:03:28.383Z,13.77
2017-11-07T07:05:54.702Z,11.00
2017-11-07T07:08:21.006Z,15.18
2017-11-07T07:10:47.342Z,11.80
2017-11-07T07:13:13.636Z,14.00
2017-11-07T07:15:40.655Z,10.55
2017-11-07T07:18:06.946Z,10.05
2017-11-07T07:20:33.230Z,8.35
2017-11-07T07:22:59.523Z,11.98
2017-11-07T07:25:25.818Z,11.00
2017-11-07T07:27:52.103Z,16.25
2017-11-07T07:30:18.366Z,8.80
2017-11-07T07:32:44.642Z,7.87
2017-11-07T07:35:10.907Z,10.50
2017-11-07T07:37:37.209Z,11.02
2017-11-07T07:40:03.560Z,9.23
2017-11-07T07:42:29.864Z,13.52
2017-11-07T07:44:56.166Z,10.75
2017-11-07T07:47:22.418Z,10.95
2017-11-07T07:49:50.531Z,9.55
2017-11-07T07:52:16.790Z,11.45
2017-11-07T07:54:43.086Z,12.15
2017-11-07T07:57:09.341Z,10.32
2017-11-07T07:59:36.747Z,13.45
2017-11-07T08:02:03.069Z,9.75
2017-11-07T08:04:29.387Z,10.77
2017-11-07T08:06:55.687Z,8.65
2017-11-07T08:09:22.055Z,13.43
2017-11-07T08:11:48.388Z,10.05
2017-11-07T08:14:14.755Z,10.18
2017-11-07T08:16:41.062Z,9.02
2017-11-07T08:19:07.343Z,9.63
2017-11-07T08:21:33.618Z,11.57
2017-11-07T08:23:59.907Z,14.20
2017-11-07T08:26:26.211Z,11.90
2017-11-07T08:28:52.490Z,35.63
2017-11-07T08:31:18.746Z,65.35
2017-11-07T08:33:45.055Z,11.93
2017-11-07T08:36:11.313Z,13.27
2017-11-07T08:38:38.354Z,10.93
2017-11-07T08:41:04.643Z,10.57
2017-11-07T08:43:30.926Z,11.05
2017-11-07T08:45:57.279Z,45.60
2017-11-07T08:48:23.537Z,17.42
2017-11-07T08:50:50.575Z,11.32
2017-11-07T08:53:16.863Z,7.75
2017-11-07T08:55:43.158Z,8.15
2017-11-07T08:58:09.447Z,11.12
2017-11-07T09:00:36.826Z,9.23
2017-11-07T09:03:03.106Z,9.43
2017-11-07T09:05:29.407Z,8.20
2017-11-07T09:07:55.746Z,11.23
2017-11-07T09:10:22.075Z,8.75
2017-11-07T09:12:49.095Z,8.93
2017-11-07T09:15:15.434Z,9.68
2017-11-07T09:17:41.767Z,8.50
2017-11-07T09:20:08.075Z,8.82
2017-11-07T09:22:34.376Z,9.07
2017-11-07T09:25:00.662Z,7.03
2017-11-07T09:27:26.960Z,19.75
2017-11-07T09:29:54.024Z,48.33
2017-11-07T09:32:21.796Z,17.15
2017-11-07T09:34:48.842Z,7.00
2017-11-07T09:37:15.110Z,9.13
2017-11-07T09:39:42.499Z,10.98
2017-11-07T09:42:08.770Z,8.02
2017-11-07T09:44:35.063Z,6.53
2017-11-07T09:47:03.098Z,7.95
2017-11-07T09:49:29.375Z,7.57
2017-11-07T09:51:55.646Z,7.63
2017-11-07T09:54:21.957Z,8.18
2017-11-07T09:56:48.223Z,5.35
2017-11-07T09:59:14.524Z,8.30
2017-11-07T10:01:40.823Z,9.65
2017-11-07T10:04:07.098Z,6.85
2017-11-07T10:06:33.403Z,8.93
2017-11-07T10:09:00.702Z,9.15
2017-11-07T10:11:26.970Z,7.53
2017-11-07T10:13:55.095Z,7.57
2017-11-07T10:16:21.378Z,8.13
2017-11-07T10:18:47.702Z,7.70
2017-11-07T10:21:13.979Z,10.10
2017-11-07T10:23:40.274Z,6.97
2017-11-07T10:26:06.614Z,9.90
2017-11-07T10:28:32.943Z,9.00
2017-11-07T10:30:59.262Z,8.37
2017-11-07T10:33:26.294Z,9.40
2017-11-07T10:35:53.647Z,9.80
2017-11-07T10:38:19.948Z,7.37
2017-11-07T10:40:47.322Z,8.05
2017-11-07T10:43:13.603Z,11.77
2017-11-07T10:45:39.931Z,6.37
2017-11-07T10:48:06.230Z,7.17
2017-11-07T10:50:32.526Z,9.13
2017-11-07T10:52:58.807Z,9.10
2017-11-07T10:55:25.147Z,6.00
2017-11-07T10:57:52.231Z,7.55
2017-11-07T11:00:18.595Z,7.32
2017-11-07T11:02:44.891Z,7.40
2017-11-07T11:05:12.310Z,8.77
2017-11-07T11:07:38.631Z,8.20
2017-11-07T11:10:04.951Z,7.17
2017-11-07T11:12:31.990Z,7.30
2017-11-07T11:14:59.041Z,9.02
2017-11-07T11:17:25.322Z,8.65
2017-11-07T11:19:51.612Z,8.82
2017-11-07T11:22:17.895Z,9.40
2017-11-07T11:24:44.211Z,9.18
2017-11-07T11:27:10.510Z,10.68
2017-11-07T11:29:36.834Z,9.48
2017-11-07T11:32:03.159Z,14.43
2017-11-07T11:34:29.462Z,14.77
2017-11-07T11:36:55.747Z,13.25
2017-11-07T11:39:22.047Z,11.52
2017-11-07T11:41:48.320Z,10.93
2017-11-07T11:44:14.626Z,11.25
2017-11-07T11:46:40.931Z,9.40
2017-11-07T11:49:08.278Z,11.40
2017-11-07T11:51:34.570Z,10.25
2017-11-07T11:54:00.882Z,12.07
2017-11-07T11:56:27.166Z,12.73
2017-11-07T11:58:53.502Z,14.60
2017-11-07T12:01:20.598Z,12.57
2017-11-07T12:03:47.602Z,9.90
2017-11-07T12:06:13.930Z,10.70
2017-11-07T12:08:40.242Z,10.97
2017-11-07T12:11:07.282Z,16.30
2017-11-07T12:13:33.559Z,12.00
2017-11-07T12:15:59.902Z,14.97
2017-11-07T12:18:26.178Z,15.20
2017-11-07T12:20:52.511Z,14.60
2017-11-07T12:23:18.832Z,15.03
2017-11-07T12:25:45.143Z,12.37
2017-11-07T12:28:11.458Z,9.97
2017-11-07T12:30:37.798Z,11.20
2017-11-07T12:33:04.111Z,8.63
2017-11-07T12:35:30.434Z,11.30
2017-11-07T12:37:56.798Z,10.65
2017-11-07T12:40:23.066Z,14.50
2017-11-07T12:42:49.363Z,9.43
2017-11-07T12:45:15.691Z,13.00
2017-11-07T12:47:41.947Z,9.20
2017-11-07T12:50:20.591Z,10.87
2017-11-07T12:52:46.879Z,9.30
2017-11-07T12:55:13.158Z,8.03
2017-11-07T12:57:39.479Z,7.03
2017-11-07T13:00:06.890Z,10.88
2017-11-07T13:02:33.175Z,8.20
2017-11-07T13:05:00.261Z,10.00
2017-11-07T13:07:26.554Z,11.47
2017-11-07T13:09:52.838Z,9.33
2017-11-07T13:12:19.870Z,10.15
2017-11-07T13:14:46.919Z,12.50
2017-11-07T13:17:13.217Z,9.50
2017-11-07T13:19:39.498Z,13.35
2017-11-07T13:22:06.534Z,11.30
2017-11-07T13:24:32.855Z,12.23
2017-11-07T13:26:59.122Z,10.20
2017-11-07T13:29:27.462Z,9.90
2017-11-07T13:31:54.487Z,10.10
2017-11-07T13:34:20.775Z,10.27
2017-11-07T13:36:47.071Z,11.30
2017-11-07T13:39:13.346Z,12.33
2017-11-07T13:41:40.394Z,9.57
2017-11-07T13:44:06.694Z,7.95
2017-11-07T13:46:32.978Z,12.13
2017-11-07T13:48:59.985Z,9.95
2017-11-07T13:51:26.290Z,14.07
2017-11-07T13:53:53.279Z,11.65
2017-11-07T13:56:19.551Z,14.00
2017-11-07T13:58:45.846Z,8.20
2017-11-07T14:01:12.112Z,15.70
2017-11-07T14:03:38.403Z,11.73
2017-11-07T14:06:04.711Z,12.55
2017-11-07T14:08:30.976Z,11.07
2017-11-07T14:10:57.238Z,18.42
2017-11-07T14:13:23.538Z,12.70
2017-11-07T14:15:49.818Z,12.57
2017-11-07T14:18:16.839Z,13.43
2017-11-07T14:20:43.175Z,11.55
2017-11-07T14:23:09.506Z,11.73
2017-11-07T14:25:35.810Z,12.77
2017-11-07T14:28:02.110Z,13.57
2017-11-07T14:30:29.166Z,11.45
2017-11-07T14:32:55.450Z,13.45
2017-11-07T14:35:22.466Z,11.10
2017-11-07T14:37:48.746Z,12.90
2017-11-07T14:40:15.786Z,13.57
2017-11-07T14:42:42.070Z,11.12
2017-11-07T14:45:08.382Z,13.43
2017-11-07T14:47:35.415Z,15.95
2017-11-07T14:50:02.454Z,16.23
2017-11-07T14:52:28.734Z,12.57
2017-11-07T14:54:55.366Z,14.45
2017-11-07T14:57:22.410Z,11.45
2017-11-07T14:59:48.698Z,14.13
2017-11-07T15:02:15.698Z,16.25
2017-11-07T15:04:41.983Z,12.37
2017-11-07T15:07:08.279Z,13.62
2017-11-07T15:09:35.599Z,15.43
2017-11-07T15:12:01.907Z,15.25
2017-11-07T15:14:28.283Z,13.88
2017-11-07T15:16:54.790Z,14.57
2017-11-07T15:19:21.162Z,13.90
2017-11-07T15:21:47.430Z,15.10
2017-11-07T15:24:13.766Z,16.85
2017-11-07T15:26:40.087Z,15.75
2017-11-07T15:29:06.342Z,15.45
2017-11-07T15:31:33.366Z,17.17
2017-11-07T15:34:01.559Z,14.40
2017-11-07T15:36:27.846Z,15.98
2017-11-07T15:38:54.134Z,17.27
2017-11-07T15:41:20.418Z,14.48
2017-11-07T15:43:46.682Z,15.52
2017-11-07T15:46:13.090Z,14.02
2017-11-07T15:48:39.372Z,26.70
2017-11-07T15:51:05.720Z,18.52
2017-11-07T15:53:32.003Z,19.87
2017-11-07T15:55:58.263Z,15.85
2017-11-07T15:58:24.546Z,15.77
2017-11-07T16:00:50.838Z,15.57
2017-11-07T16:03:17.834Z,16.92
2017-11-07T16:05:44.135Z,17.20
2017-11-07T16:08:10.435Z,18.83
2017-11-07T16:10:36.743Z,16.70
2017-11-07T16:13:03.047Z,19.50
2017-11-07T16:15:30.094Z,14.82
2017-11-07T16:17:56.359Z,19.02
2017-11-07T16:20:22.613Z,15.32
2017-11-07T16:22:48.962Z,16.80
2017-11-07T16:25:15.250Z,19.15
2017-11-07T16:27:41.546Z,20.65
2017-11-07T16:30:08.023Z,18.75
2017-11-07T16:32:34.918Z,18.10
2017-11-07T16:35:01.773Z,15.73
2017-11-07T16:37:29.413Z,18.00
2017-11-07T16:39:57.123Z,18.30
2017-11-07T16:42:23.547Z,21.77
2017-11-07T16:44:50.647Z,18.87
2017-11-07T16:47:17.994Z,19.52
2017-11-07T16:49:48.263Z,17.98
2017-11-07T16:52:15.600Z,18.10
2017-11-07T16:54:42.860Z,24.17
2017-11-07T16:57:10.415Z,17.90
2017-11-07T16:59:37.168Z,15.57
2017-11-07T17:02:04.343Z,19.55
2017-11-07T17:04:31.773Z,18.98
2017-11-07T17:06:58.487Z,19.08
2017-11-07T17:09:25.625Z,16.95
2017-11-07T17:11:52.283Z,18.90
2017-11-07T17:14:20.562Z,18.65
2017-11-07T17:16:48.340Z,15.00
2017-11-07T17:19:18.102Z,18.37
2017-11-07T17:21:47.112Z,18.90
2017-11-07T17:24:16.000Z,15.70
2017-11-07T17:26:45.752Z,17.60
2017-11-07T17:29:16.697Z,16.33
2017-11-07T17:31:46.507Z,24.52
2017-11-07T17:34:15.385Z,15.13
2017-11-07T17:36:44.193Z,16.87
2017-11-07T17:39:13.174Z,17.00
2017-11-07T17:41:41.768Z,17.65
2017-11-07T17:44:11.036Z,20.05
2017-11-07T17:46:40.500Z,16.27
2017-11-07T17:49:09.761Z,17.77
2017-11-07T17:51:38.677Z,23.65
2017-11-07T17:54:07.583Z,17.92
2017-11-07T17:56:37.488Z,18.25
2017-11-07T17:59:06.892Z,17.60
2017-11-07T18:01:36.123Z,19.85
2017-11-07T18:04:06.976Z,17.15
2017-11-07T18:06:36.474Z,17.95
2017-11-07T18:09:05.795Z,23.23
2017-11-07T18:11:34.916Z,21.87
2017-11-07T18:14:05.460Z,16.50
2017-11-07T18:16:35.554Z,20.10
2017-11-07T18:19:05.055Z,16.08
2017-11-07T18:21:33.765Z,15.02
2017-11-07T18:24:02.524Z,22.73
2017-11-07T18:26:32.427Z,17.45
2017-11-07T18:29:02.242Z,21.33
2017-11-07T18:31:31.349Z,20.92
2017-11-07T18:34:00.117Z,19.45
2017-11-07T18:36:28.832Z,25.62
2017-11-07T18:38:58.056Z,18.60
2017-11-07T18:41:26.872Z,18.08
2017-11-07T18:43:56.339Z,14.73
2017-11-07T18:46:25.544Z,16.42
2017-11-07T18:48:55.976Z,20.27
2017-11-07T18:51:25.244Z,18.90
2017-11-07T18:53:54.805Z,18.65
2017-11-07T18:56:23.861Z,17.17
2017-11-07T18:58:52.982Z,16.77
2017-11-07T19:01:22.504Z,17.17
2017-11-07T19:03:53.049Z,18.73
2017-11-07T19:06:22.425Z,19.50
2017-11-07T19:08:51.374Z,17.87
2017-11-07T19:11:20.932Z,18.25
2017-11-07T19:13:49.548Z,19.87
2017-11-07T19:16:18.806Z,93.80
2017-11-07T19:18:48.111Z,88.65
2017-11-07T19:21:16.761Z,27.83
2017-11-07T19:23:46.709Z,21.23
2017-11-07T19:26:16.458Z,20.60
2017-11-07T19:28:46.949Z,19.02
2017-11-07T19:31:16.601Z,15.10
2017-11-07T19:33:45.380Z,15.50
2017-11-07T19:36:14.418Z,18.48
2017-11-07T19:38:43.792Z,18.62
2017-11-07T19:41:12.492Z,20.20
2017-11-07T19:43:41.386Z,20.67
2017-11-07T19:46:10.202Z,17.95
2017-11-07T19:48:39.220Z,19.30
2017-11-07T19:51:08.338Z,17.33
2017-11-07T19:53:38.380Z,20.42
2017-11-07T19:56:08.086Z,19.02
2017-11-07T19:58:38.646Z,21.95
2017-11-07T20:01:08.610Z,16.20
2017-11-07T20:03:39.023Z,17.52
2017-11-07T20:06:08.085Z,18.50
2017-11-07T20:08:38.831Z,18.40
2017-11-07T20:11:07.729Z,16.02
2017-11-07T20:13:37.513Z,18.15
2017-11-07T20:16:06.545Z,19.60
2017-11-07T20:18:35.891Z,17.05
2017-11-07T20:21:04.898Z,24.50
2017-11-07T20:23:33.923Z,18.65
2017-11-07T20:26:03.582Z,21.50
2017-11-07T20:28:32.766Z,20.42
2017-11-07T20:31:01.758Z,20.58
2017-11-07T20:33:31.314Z,24.05
2017-11-07T20:36:00.421Z,17.87
2017-11-07T20:38:29.471Z,18.92
2017-11-07T20:40:58.377Z,25.23
2017-11-07T20:43:29.313Z,18.62
2017-11-07T20:45:59.057Z,32.88
2017-11-07T20:48:27.612Z,59.35
2017-11-07T20:50:56.358Z,36.55
2017-11-07T20:53:26.088Z,23.55
2017-11-07T20:55:56.010Z,21.80
2017-11-07T20:58:25.901Z,21.40
2017-11-07T21:00:55.203Z,18.50
2017-11-07T21:03:23.906Z,18.42
2017-11-07T21:05:52.847Z,16.87
2017-11-07T21:08:21.510Z,17.83
2017-11-07T21:10:50.561Z,20.33
2017-11-07T21:13:21.009Z,19.02
2017-11-07T21:15:50.729Z,19.95
2017-11-07T21:18:19.587Z,19.12
2017-11-07T21:20:50.796Z,18.55
2017-11-07T21:23:19.639Z,23.20
2017-11-07T21:25:48.753Z,24.37
2017-11-07T21:28:17.469Z,21.75
2017-11-07T21:30:46.545Z,19.55
2017-11-07T21:33:15.594Z,20.50
2017-11-07T21:35:44.494Z,24.20
2017-11-07T21:38:13.622Z,18.55
2017-11-07T21:40:42.274Z,19.42
2017-11-07T21:43:10.921Z,18.75
2017-11-07T21:45:40.109Z,17.98
2017-11-07T21:48:09.475Z,17.77
2017-11-07T21:50:38.603Z,19.30
2017-11-07T21:53:07.741Z,19.73
2017-11-07T21:55:36.597Z,18.02
2017-11-07T21:58:05.645Z,17.27
2017-11-07T22:00:35.216Z,19.62
2017-11-07T22:03:03.929Z,21.10
2017-11-07T22:05:33.065Z,18.50
2017-11-07T22:08:02.649Z,19.10
2017-11-07T22:10:31.891Z,17.25
2017-11-07T22:13:00.537Z,19.47
2017-11-07T22:15:29.361Z,17.15
2017-11-07T22:18:10.992Z,21.98
2017-11-07T22:20:41.252Z,21.50
2017-11-07T22:23:15.967Z,18.33
2017-11-07T22:25:45.293Z,24.08
2017-11-07T22:28:14.110Z,24.10
2017-11-07T22:30:43.893Z,23.05
2017-11-07T22:33:13.072Z,18.25
2017-11-07T22:35:41.502Z,17.33
2017-11-07T22:38:08.626Z,18.45
2017-11-07T22:40:35.685Z,21.80
2017-11-07T22:43:02.209Z,24.12
2017-11-07T22:45:29.260Z,22.75
2017-11-07T22:47:55.598Z,18.25
2017-11-07T22:50:21.909Z,21.45
2017-11-07T22:52:48.211Z,23.67
2017-11-07T22:55:15.262Z,19.42
2017-11-07T22:57:41.535Z,21.55
2017-11-07T23:00:08.561Z,19.02
2017-11-07T23:02:35.594Z,21.55
2017-11-07T23:05:01.879Z,18.05
2017-11-07T23:07:29.995Z,21.75
2017-11-07T23:09:56.306Z,24.48
2017-11-07T23:12:22.598Z,17.90
2017-11-07T23:14:48.867Z,21.92
2017-11-07T23:17:15.171Z,22.52
2017-11-07T23:19:41.467Z,18.75
2017-11-07T23:22:07.747Z,24.70
2017-11-07T23:24:34.053Z,21.80
2017-11-07T23:27:01.127Z,21.73
2017-11-07T23:29:29.219Z,21.60
2017-11-07T23:31:56.583Z,21.90
2017-11-07T23:34:23.618Z,18.35
2017-11-07T23:36:49.910Z,23.48
2017-11-07T23:39:16.191Z,21.85
2017-11-07T23:41:42.455Z,23.52
2017-11-07T23:44:09.486Z,18.25
2017-11-07T23:46:35.763Z,25.08
2017-11-07T23:49:02.806Z,19.92
2017-11-07T23:51:29.095Z,24.60
2017-11-07T23:53:55.426Z,19.95
2017-11-07T23:56:22.443Z,23.77
2017-11-07T23:58:48.719Z,23.67
